»·PEaware :: N969DA KPDX-KCVO

N969DA :: KPDX-KCVO

FLIGHT INFORMATION

Flight Status: Arrived
Operator: Privately registered:
United States
More flights under this callsign
Pilot: Anonymous 20880 (20880)
Aircraft: Unknown
(DA62)
More flights by this aircraft type
Origin: KPDX Portland Intl
United States
Destination: KCVO Corvallis Mun
United States
More flights between these airports :: More routes between these airports
Route: +PTLD1 UBG +V495 CVO
File this flight plan on PilotEdge
Remarks:
Altitude:
(Current/Filed)
6,000ft
Speed:
(Current/Filed)
140kts
Departed: 31-Dec-18 11:44 AM
Arrived: 31-Dec-18 12:30 PM
Distance/Time
Traveled:
72nm/0:46
Distance/Time
To Go:
Arrived

Flight Plot

Page will automatically refresh every two minutes.

Flight plan parsing failed; only flown route is shown


Map Options




Map Legend


Flown Route
Filed Route
Departure Airport
Arrival Airport
Navaid (VOR, NDB)
Fix

Horizontal Profiles

Position Reports

Time Latitude Longitude Heading Altitude Ground
Speed
31-Dec-18 11:26 45.586718 -122.581563 299 33ft 0kts
31-Dec-18 11:27 45.586718 -122.581563 299 33ft 0kts
31-Dec-18 11:28 45.586718 -122.581563 299 33ft 0kts
31-Dec-18 11:29 45.586718 -122.581563 299 33ft 0kts
31-Dec-18 11:30 45.586718 -122.581563 299 33ft 0kts
31-Dec-18 11:31 45.586718 -122.581563 299 33ft 0kts
31-Dec-18 11:32 45.586718 -122.581563 299 33ft 0kts
31-Dec-18 11:33 45.586718 -122.581563 299 33ft 0kts
31-Dec-18 11:34 45.586718 -122.581563 299 33ft 0kts
31-Dec-18 11:35 45.586718 -122.581563 299 33ft 0kts
31-Dec-18 11:36 45.587591 -122.582912 349 33ft 11kts
31-Dec-18 11:37 45.590180 -122.586969 300 33ft 21kts
31-Dec-18 11:38 45.592671 -122.593387 297 33ft 20kts
31-Dec-18 11:39 45.593944 -122.596058 1 33ft 0kts
31-Dec-18 11:40 45.593944 -122.596058 1 33ft 0kts
31-Dec-18 11:41 45.593944 -122.596058 1 33ft 0kts
31-Dec-18 11:42 45.593944 -122.596058 1 33ft 0kts
31-Dec-18 11:43 45.591893 -122.588045 119 61ft 87kts
31-Dec-18 11:44 45.581780 -122.558600 112 1237ft 84kts
31-Dec-18 11:45 45.568340 -122.543686 226 2096ft 79kts
31-Dec-18 11:46 45.554591 -122.570725 236 2985ft 99kts
31-Dec-18 11:47 45.538419 -122.603588 237 3970ft 109kts
31-Dec-18 11:48 45.520725 -122.639398 238 4960ft 115kts
31-Dec-18 11:49 45.502199 -122.677138 239 5935ft 121kts
31-Dec-18 11:50 45.478826 -122.724697 237 5988ft 163kts
31-Dec-18 11:51 45.452163 -122.778559 237 5976ft 167kts
31-Dec-18 11:52 45.425367 -122.832647 237 5969ft 167kts
31-Dec-18 11:53 45.398365 -122.887053 236 5965ft 169kts
31-Dec-18 11:54 45.371324 -122.941386 237 5966ft 170kts
31-Dec-18 11:55 45.336742 -122.983522 196 5968ft 175kts
31-Dec-18 11:56 45.290367 -123.001423 195 5968ft 176kts
31-Dec-18 11:57 45.243271 -123.019100 195 5968ft 177kts
31-Dec-18 11:58 45.196204 -123.036687 195 5967ft 177kts
31-Dec-18 11:59 45.148896 -123.054328 195 5967ft 177kts
31-Dec-18 12:00 45.101314 -123.072045 195 5966ft 178kts
31-Dec-18 12:01 45.053867 -123.089591 194 5966ft 179kts
31-Dec-18 12:02 45.005933 -123.107339 193 5972ft 181kts
31-Dec-18 12:03 44.957446 -123.125332 192 5994ft 182kts
31-Dec-18 12:04 44.908806 -123.143347 192 5995ft 182kts
31-Dec-18 12:05 44.861093 -123.160978 192 5991ft 182kts
31-Dec-18 12:06 44.812645 -123.178848 192 5992ft 182kts
31-Dec-18 12:07 44.764670 -123.196502 192 5993ft 182kts
31-Dec-18 12:08 44.716025 -123.214380 192 5996ft 182kts
31-Dec-18 12:09 44.667235 -123.232280 192 5998ft 183kts
31-Dec-18 12:10 44.619138 -123.249897 192 5999ft 183kts
31-Dec-18 12:11 44.570095 -123.267828 192 5999ft 184kts
31-Dec-18 12:12 44.520877 -123.285793 192 6000ft 183kts
31-Dec-18 12:13 44.474308 -123.297717 182 5516ft 157kts
31-Dec-18 12:14 44.434925 -123.303974 182 4696ft 136kts
31-Dec-18 12:15 44.395001 -123.310308 183 4018ft 150kts
31-Dec-18 12:16 44.354068 -123.316866 183 3998ft 150kts
31-Dec-18 12:17 44.315769 -123.322984 183 3998ft 150kts
31-Dec-18 12:18 44.284781 -123.306200 132 3995ft 140kts
31-Dec-18 12:19 44.254847 -123.277477 168 3987ft 149kts
31-Dec-18 12:20 44.234682 -123.308327 304 3954ft 136kts
31-Dec-18 12:21 44.263632 -123.318590 359 3696ft 131kts
31-Dec-18 12:22 44.297802 -123.322526 355 3694ft 125kts
31-Dec-18 12:23 44.330813 -123.320699 9 3010ft 126kts
31-Dec-18 12:24 44.364793 -123.314825 9 2489ft 111kts
31-Dec-18 12:25 44.396326 -123.309325 8 2033ft 123kts
31-Dec-18 12:26 44.431710 -123.303323 8 1360ft 120kts
31-Dec-18 12:27 44.459411 -123.298574 9 837ft 99kts
31-Dec-18 12:28 44.483794 -123.294450 8 348ft 81kts
31-Dec-18 12:29 44.494182 -123.291407 93 246ft 0kts
31-Dec-18 12:30 44.494182 -123.291406 93 246ft 0kts
31-Dec-18 12:31 44.498623 -123.288661 81 246ft 24kts
31-Dec-18 12:32 44.498628 -123.287668 61 246ft 0kts

Navigation Log

Ident Type
Flight plan parsing failed, navigation log unavailable